Iliamna, AK (99606)

1:57 AM AKDT on August 01, 2014 (GMT -0800)
Iliamna (PAIL) Elev 161 ft | 59.75 °N, 154.91 °W | Change Station

Current weather conditions updated 1 hour ago

Clear
Clear
55 °F
Feels Like 55 °F
N
0
Wind Variable Wind from North

Today is forecast to be Warmer than yesterday.

Today
High -- | Low -- °F
--% Chance of Precip.
Yesterday
High -- | Low -- °F
Precip. -- in
6:05 AM 10:48 PM
Waxing Crescent, 25% visible
Pressure 30.31 in
Visibility 10.0 miles
Clouds Clear
Dew Point 50 °F
Humidity 83%
Rainfall 0.00 in
Snow Depth Not available.
UV 0 out of 12
Pollen Not available.
Air Quality Not available.
Flu Activity Not available.
METAR PAIL 010853Z AUTO 00000KT 10SM CLR 13/10 A3030 RMK AO2 SLP262 T01280100 401940100 50004 TSNO

More Conditions Fewer Conditions

Pressure 30.31 in
Visibility 10.0 miles
Clouds Clear
Dew Point 50 °F
Humidity 83%
Rainfall 0.00 in
Snow Depth Not available.
UV 0 out of 12
Pollen Not available.
Air Quality Not available.
Flu Activity Not available.
METAR PAIL 010853Z AUTO 00000KT 10SM CLR 13/10 A3030 RMK AO2 SLP262 T01280100 401940100 50004 TSNO

More Conditions Fewer Conditions

10-Day Weather Forecast

Almanac

Astronomy

Aug. 01, 2014 Rise Set
Actual Time 6:05 AM AKDT 10:48 PM AKDT
Civil Twilight 5:06 AM AKDT 11:46 PM AKDT
Nautical Twilight 3:07 AM AKDT 1:37 AM AKDT
Astronomical Twilight Sun does not rise Sun does not rise
Moon 1:17 PM AKDT 11:56 PM AKDT
Length of Visible Light 18h 40m
Length of Day
16h 43m
Tomorrow will be 4m 45s shorter.
Waxing Crescent, 25% of the Moon is Illuminated
Today
Waxing Crescent
Aug 3
First Quarter
Aug 10
Full
Aug 17
Last Quarter
Aug 25
New

Today's Extremes

State Highs State Lows

Community

WunderPhotos

Upload Photos

1,739,530 photos uploaded!

Nearby

Snow Depth

Station Depth Elevation
Mcneil Canyon 1 in 1320 ft
Port Graham 0 in 300 ft
MF Bradley River 227 in 2300 ft
Nuka Glacier 13 in 1250 ft
Cooper Lake 12 in 1200 ft

Earthquake Activity

City Distance Mag. Time & Date
No recent earthquake activity has been reported nearby.
Minimum magnitude displayed is 2.5.

Coastal Water Temperatures

Place Temperature
No Stations Reporting

Nearby Weather Stations

Station Location Temp. Windchill Dew Point Humidity Wind Precip. Elev Updated Type
HADS UPPER TALARIK C NR ILIAMNA AK , Pedro Bay, AK 44 °F 44 °F - - North  at  - 0.00 in / hr 556 ft 1:00 AM AKDT MADIS
HADS KOKTULI R NR ILIAMNA AK , Iliamna, AK 53 °F - - - North  at  - 0.00 in / hr 851 ft 1:00 AM AKDT MADIS
Slop Bucket Bay Lake Iliamna AK, Iliamna, AK 50.7 °F - 49 °F 94% NW  at  3.8 mph 0.00 in / hr 43 ft 1:56 AM AKDT Rapid Fire

Show More Stations Show Fewer Stations